createdAt,value
2018-06-12T00:01:40.559Z,13.53
2018-06-12T00:04:09.853Z,13.53
2018-06-12T00:06:39.544Z,13.20
2018-06-12T00:09:08.797Z,14.53
2018-06-12T00:11:38.318Z,13.63
2018-06-12T00:14:08.155Z,13.90
2018-06-12T00:16:37.441Z,13.27
2018-06-12T00:19:06.687Z,13.47
2018-06-12T00:21:35.907Z,13.43
2018-06-12T00:24:05.503Z,14.57
2018-06-12T00:26:35.097Z,13.90
2018-06-12T00:29:04.337Z,14.33
2018-06-12T00:31:33.648Z,13.47
2018-06-12T00:34:02.873Z,14.70
2018-06-12T00:36:32.667Z,15.47
2018-06-12T00:39:01.967Z,14.90
2018-06-12T00:41:31.641Z,14.50
2018-06-12T00:44:01.486Z,15.60
2018-06-12T00:46:31.422Z,15.90
2018-06-12T00:49:01.363Z,14.90
2018-06-12T00:51:30.627Z,15.63
2018-06-12T00:53:59.900Z,16.30
2018-06-12T00:56:40.255Z,18.57
2018-06-12T00:59:09.495Z,16.80
2018-06-12T01:01:38.740Z,15.93
2018-06-12T01:04:08.036Z,15.27
2018-06-12T01:06:37.268Z,16.00
2018-06-12T01:09:06.771Z,17.23
2018-06-12T01:11:36.307Z,16.57
2018-06-12T01:14:05.661Z,18.47
2018-06-12T01:16:34.932Z,16.33
2018-06-12T01:19:04.249Z,17.03
2018-06-12T01:21:33.469Z,18.50
2018-06-12T01:24:03.723Z,18.10
2018-06-12T01:26:32.991Z,19.53
2018-06-12T01:29:02.244Z,19.40
2018-06-12T01:31:31.453Z,18.83
2018-06-12T01:34:00.743Z,20.40
2018-06-12T01:36:29.980Z,19.30
2018-06-12T01:38:59.234Z,19.10
2018-06-12T01:41:28.452Z,20.13
2018-06-12T01:43:57.677Z,23.87
2018-06-12T01:46:26.925Z,20.03
2018-06-12T01:48:56.157Z,24.00
2018-06-12T01:51:25.396Z,25.13
2018-06-12T01:53:54.643Z,23.57
2018-06-12T01:56:23.890Z,24.17
2018-06-12T01:58:53.127Z,24.90
2018-06-12T02:01:22.508Z,22.37
2018-06-12T02:03:51.882Z,22.93
2018-06-12T02:06:21.103Z,24.33
2018-06-12T02:08:50.356Z,25.07
2018-06-12T02:11:19.588Z,24.83
2018-06-12T02:13:48.921Z,25.50
2018-06-12T02:16:18.160Z,24.80
2018-06-12T02:18:47.479Z,24.90
2018-06-12T02:21:16.739Z,26.77
2018-06-12T02:23:45.964Z,30.00
2018-06-12T02:26:15.289Z,27.03
2018-06-12T02:28:44.547Z,28.73
2018-06-12T02:31:13.890Z,27.43
2018-06-12T02:33:43.174Z,28.70
2018-06-12T02:36:12.399Z,27.40
2018-06-12T02:38:41.673Z,28.87
2018-06-12T02:41:10.912Z,29.87
2018-06-12T02:43:40.209Z,29.20
2018-06-12T02:46:09.428Z,28.13
2018-06-12T02:48:38.645Z,26.20
2018-06-12T02:51:07.917Z,28.37
2018-06-12T02:53:37.155Z,27.43
2018-06-12T02:56:06.473Z,29.50
2018-06-12T02:58:35.725Z,27.70
2018-06-12T03:01:04.958Z,29.77
2018-06-12T03:03:34.236Z,27.60
2018-06-12T03:06:03.568Z,28.17
2018-06-12T03:08:32.805Z,26.57
2018-06-12T03:11:02.043Z,27.77
2018-06-12T03:13:31.273Z,26.63
2018-06-12T03:16:00.568Z,28.13
2018-06-12T03:18:29.852Z,27.73
2018-06-12T03:20:59.104Z,28.73
2018-06-12T03:23:28.357Z,27.37
2018-06-12T03:25:58.684Z,27.63
2018-06-12T03:28:28.006Z,27.63
2018-06-12T03:30:57.244Z,27.80
2018-06-12T03:33:26.477Z,26.37
2018-06-12T03:35:55.702Z,28.93
2018-06-12T03:38:24.925Z,28.00
2018-06-12T03:40:54.159Z,30.37
2018-06-12T03:43:23.467Z,31.70
2018-06-12T03:45:52.760Z,30.00
2018-06-12T03:48:22.017Z,30.90
2018-06-12T03:50:51.353Z,31.30
2018-06-12T03:53:20.615Z,32.47
2018-06-12T03:55:49.900Z,30.60
2018-06-12T03:58:19.208Z,33.60
2018-06-12T04:00:48.635Z,35.17
2018-06-12T04:03:17.952Z,31.97
2018-06-12T04:05:47.289Z,33.20
2018-06-12T04:08:16.621Z,33.30
2018-06-12T04:10:45.876Z,31.53
2018-06-12T04:13:15.228Z,30.60
2018-06-12T04:15:44.507Z,32.53
2018-06-12T04:18:13.784Z,30.33
2018-06-12T04:20:43.218Z,33.33
2018-06-12T04:23:12.656Z,29.07
2018-06-12T04:25:41.920Z,30.27
2018-06-12T04:28:11.212Z,31.10
2018-06-12T04:30:40.514Z,28.77
2018-06-12T04:33:09.812Z,27.50
2018-06-12T04:35:39.160Z,29.70
2018-06-12T04:38:08.470Z,28.83
2018-06-12T04:40:37.760Z,30.70
2018-06-12T04:43:07.063Z,27.90
2018-06-12T04:45:36.388Z,28.70
2018-06-12T04:48:05.640Z,26.00
2018-06-12T04:50:34.961Z,28.23
2018-06-12T04:53:04.258Z,28.47
2018-06-12T04:55:33.593Z,28.07
2018-06-12T04:58:03.066Z,26.60
2018-06-12T05:00:32.345Z,27.50
2018-06-12T05:03:01.597Z,27.03
2018-06-12T05:05:30.899Z,24.07
2018-06-12T05:08:00.167Z,24.83
2018-06-12T05:10:29.531Z,24.00
2018-06-12T05:12:59.888Z,24.17
2018-06-12T05:15:29.135Z,25.37
2018-06-12T05:17:58.449Z,25.67
2018-06-12T05:20:27.801Z,27.67
2018-06-12T05:22:57.058Z,23.07
2018-06-12T05:25:26.319Z,24.87
2018-06-12T05:27:55.721Z,23.53
2018-06-12T05:30:24.972Z,21.20
2018-06-12T05:32:54.197Z,22.93
2018-06-12T05:35:23.420Z,20.70
2018-06-12T05:37:59.144Z,21.63
2018-06-12T05:40:28.360Z,22.00
2018-06-12T05:42:57.618Z,20.97
2018-06-12T05:45:26.961Z,19.67
2018-06-12T05:47:56.194Z,21.33
2018-06-12T05:50:25.487Z,20.03
2018-06-12T05:52:54.768Z,18.40
2018-06-12T05:55:23.985Z,20.60
2018-06-12T05:57:53.233Z,17.90
2018-06-12T06:00:22.743Z,19.43
2018-06-12T06:02:52.180Z,19.13
2018-06-12T06:05:21.431Z,18.37
2018-06-12T06:07:50.652Z,18.43
2018-06-12T06:10:19.949Z,19.20
2018-06-12T06:12:49.232Z,19.57
2018-06-12T06:15:18.612Z,17.97
2018-06-12T06:17:47.838Z,18.30
2018-06-12T06:20:17.345Z,16.20
2018-06-12T06:22:46.741Z,17.80
2018-06-12T06:25:15.962Z,16.17
2018-06-12T06:27:45.393Z,16.60
2018-06-12T06:30:14.768Z,16.47
2018-06-12T06:32:44.160Z,16.10
2018-06-12T06:35:13.421Z,14.37
2018-06-12T06:37:42.662Z,14.20
2018-06-12T06:40:11.924Z,14.90
2018-06-12T06:42:41.257Z,15.30
2018-06-12T06:45:10.488Z,13.10
2018-06-12T06:47:39.712Z,14.47
2018-06-12T06:50:08.952Z,15.30
2018-06-12T06:52:38.238Z,14.43
2018-06-12T06:55:08.180Z,13.10
2018-06-12T06:57:37.434Z,12.10
2018-06-12T07:00:06.684Z,12.03
2018-06-12T07:02:36.520Z,11.83
2018-06-12T07:05:05.888Z,11.20
2018-06-12T07:07:35.137Z,12.17
2018-06-12T07:10:04.412Z,12.70
2018-06-12T07:12:33.742Z,11.70
2018-06-12T07:15:03.051Z,13.30
2018-06-12T07:17:32.273Z,13.23
2018-06-12T07:20:01.620Z,10.93
2018-06-12T07:22:30.887Z,10.10
2018-06-12T07:25:00.113Z,11.17
2018-06-12T07:27:29.325Z,10.37
2018-06-12T07:29:58.597Z,10.73
2018-06-12T07:32:27.853Z,10.27
2018-06-12T07:34:57.092Z,9.83
2018-06-12T07:37:26.361Z,10.80
2018-06-12T07:39:55.646Z,9.27
2018-06-12T07:42:24.864Z,10.80
2018-06-12T07:44:54.083Z,9.90
2018-06-12T07:47:23.391Z,11.20
2018-06-12T07:49:52.661Z,11.40
2018-06-12T07:52:21.895Z,10.03
2018-06-12T07:54:51.244Z,11.27
2018-06-12T07:57:20.492Z,10.40
2018-06-12T07:59:49.779Z,12.40
2018-06-12T08:02:19.133Z,11.70
2018-06-12T08:04:48.525Z,11.70
2018-06-12T08:07:17.824Z,10.33
2018-06-12T08:09:47.184Z,11.93
2018-06-12T08:12:16.522Z,11.60
2018-06-12T08:14:45.781Z,13.00
2018-06-12T08:17:15.112Z,11.60
2018-06-12T08:19:44.460Z,12.07
2018-06-12T08:22:13.738Z,12.13
2018-06-12T08:24:43.028Z,13.57
2018-06-12T08:27:12.257Z,12.60
2018-06-12T08:29:41.681Z,13.00
2018-06-12T08:32:11.004Z,12.40
2018-06-12T08:34:40.273Z,13.27
2018-06-12T08:37:09.573Z,12.63
2018-06-12T08:39:38.835Z,12.80
2018-06-12T08:42:08.171Z,13.77
2018-06-12T08:44:37.432Z,12.50
2018-06-12T08:47:06.797Z,13.40
2018-06-12T08:49:36.056Z,12.90
2018-06-12T08:52:05.371Z,13.13
2018-06-12T08:54:34.737Z,13.30
2018-06-12T08:57:03.981Z,13.33
2018-06-12T08:59:33.278Z,13.20
2018-06-12T09:02:02.829Z,13.73
2018-06-12T09:04:32.105Z,12.90
2018-06-12T09:07:01.392Z,13.77
2018-06-12T09:09:30.693Z,13.73
2018-06-12T09:12:00.005Z,13.13
2018-06-12T09:14:29.311Z,11.77
2018-06-12T09:16:58.688Z,12.13
2018-06-12T09:19:27.948Z,11.50
2018-06-12T09:21:57.327Z,10.53
2018-06-12T09:24:26.669Z,11.40
2018-06-12T09:26:55.928Z,10.03
2018-06-12T09:29:25.231Z,11.30
2018-06-12T09:31:54.536Z,12.10
2018-06-12T09:34:34.368Z,9.90
2018-06-12T09:37:03.729Z,9.30
2018-06-12T09:39:33.178Z,9.20
2018-06-12T09:42:02.660Z,8.83
2018-06-12T09:44:31.965Z,8.90
2018-06-12T09:47:02.248Z,8.83
2018-06-12T09:49:31.468Z,7.07
2018-06-12T09:52:00.904Z,7.57
2018-06-12T09:54:30.124Z,7.53
2018-06-12T09:56:59.351Z,7.53
2018-06-12T09:59:28.599Z,7.40
2018-06-12T10:01:57.948Z,5.97
2018-06-12T10:04:27.233Z,5.97
2018-06-12T10:06:56.513Z,6.87
2018-06-12T10:09:25.879Z,6.33
2018-06-12T10:11:55.145Z,5.50
2018-06-12T10:14:24.549Z,5.87
2018-06-12T10:16:53.835Z,5.17
2018-06-12T10:19:23.299Z,5.70
2018-06-12T10:21:52.652Z,6.20
2018-06-12T10:24:22.048Z,5.60
2018-06-12T10:26:51.289Z,5.40
2018-06-12T10:29:20.638Z,5.23
2018-06-12T10:31:49.907Z,5.67
2018-06-12T10:34:19.159Z,5.20
2018-06-12T10:36:48.410Z,4.90
2018-06-12T10:39:17.816Z,4.80
2018-06-12T10:41:47.164Z,4.67
2018-06-12T10:44:16.410Z,4.40
2018-06-12T10:46:45.702Z,5.70
2018-06-12T10:49:15.048Z,5.00
2018-06-12T10:51:44.299Z,5.40
2018-06-12T10:54:14.290Z,4.70
2018-06-12T10:56:43.606Z,5.57
2018-06-12T10:59:12.883Z,5.50
2018-06-12T11:01:42.136Z,5.40
2018-06-12T11:04:11.459Z,5.50
2018-06-12T11:06:40.756Z,4.90
2018-06-12T11:09:10.017Z,5.70
2018-06-12T11:11:39.373Z,4.77
2018-06-12T11:14:08.619Z,5.30
2018-06-12T11:16:37.874Z,4.50
2018-06-12T11:19:07.207Z,4.90
2018-06-12T11:21:36.475Z,4.90
2018-06-12T11:24:06.727Z,4.83
2018-06-12T11:26:35.956Z,4.90
2018-06-12T11:29:05.202Z,4.87
2018-06-12T11:31:34.437Z,4.20
2018-06-12T11:34:03.684Z,4.70
2018-06-12T11:36:32.901Z,5.10
2018-06-12T11:39:02.176Z,4.70
2018-06-12T11:41:31.407Z,5.10
2018-06-12T11:44:00.658Z,4.73
2018-06-12T11:46:30.311Z,5.30
2018-06-12T11:48:59.614Z,4.40
2018-06-12T11:51:28.875Z,3.83
2018-06-12T11:53:58.090Z,4.83
2018-06-12T11:56:27.436Z,5.00
2018-06-12T11:58:56.652Z,4.57
2018-06-12T12:01:26.001Z,4.73
2018-06-12T12:03:55.334Z,5.47
2018-06-12T12:06:24.609Z,5.07
2018-06-12T12:08:53.889Z,5.40
2018-06-12T12:11:23.240Z,4.40
2018-06-12T12:13:52.519Z,4.30
2018-06-12T12:16:21.860Z,3.87
2018-06-12T12:18:51.193Z,4.33
2018-06-12T12:21:20.476Z,4.73
2018-06-12T12:23:49.752Z,5.23
2018-06-12T12:26:19.125Z,4.90
2018-06-12T12:28:48.407Z,4.80
2018-06-12T12:31:17.696Z,5.00
2018-06-12T12:33:47.098Z,4.77
2018-06-12T12:36:16.431Z,4.60
2018-06-12T12:38:45.756Z,3.80
2018-06-12T12:41:15.130Z,4.87
2018-06-12T12:43:44.424Z,5.30
2018-06-12T12:46:13.699Z,5.40
2018-06-12T12:48:42.981Z,4.00
2018-06-12T12:51:12.281Z,5.70
2018-06-12T12:53:41.600Z,4.93
2018-06-12T12:56:10.848Z,5.50
2018-06-12T12:58:40.145Z,5.27
2018-06-12T13:01:09.468Z,5.27
2018-06-12T13:03:38.847Z,5.30
2018-06-12T13:06:08.212Z,6.37
2018-06-12T13:08:37.491Z,6.93
2018-06-12T13:11:06.908Z,5.80
2018-06-12T13:13:36.187Z,7.20
2018-06-12T13:16:05.482Z,6.27
2018-06-12T13:20:53.909Z,6.20
2018-06-12T13:23:23.133Z,5.53
2018-06-12T13:25:52.518Z,5.93
2018-06-12T13:28:21.804Z,5.50
2018-06-12T13:30:51.128Z,6.20
2018-06-12T13:33:20.398Z,6.00
2018-06-12T13:35:49.753Z,5.40
2018-06-12T13:38:19.053Z,5.93
2018-06-12T13:40:48.485Z,5.83
2018-06-12T13:43:17.788Z,5.23
2018-06-12T13:45:47.060Z,5.23
2018-06-12T13:48:16.340Z,5.63
2018-06-12T13:50:45.592Z,4.97
2018-06-12T13:53:14.875Z,5.50
2018-06-12T13:55:44.132Z,4.77
2018-06-12T13:58:13.510Z,5.50
2018-06-12T14:00:42.768Z,5.47
2018-06-12T14:03:12.049Z,5.90
2018-06-12T14:05:41.425Z,5.17
2018-06-12T14:08:10.688Z,5.47
2018-06-12T14:10:40.060Z,5.90
2018-06-12T14:13:10.388Z,4.80
2018-06-12T14:15:39.755Z,4.60
2018-06-12T14:18:09.046Z,4.80
2018-06-12T14:20:38.325Z,5.60
2018-06-12T14:23:07.688Z,7.03
2018-06-12T14:25:36.968Z,5.90
2018-06-12T14:28:06.243Z,5.07
2018-06-12T14:30:35.520Z,4.77
2018-06-12T14:33:05.019Z,5.90
2018-06-12T14:35:34.507Z,4.77
2018-06-12T14:38:03.764Z,4.87
2018-06-12T14:40:33.173Z,5.60
2018-06-12T14:43:02.361Z,4.57
2018-06-12T14:45:31.612Z,4.60
2018-06-12T14:48:00.891Z,6.20
2018-06-12T14:50:30.265Z,5.30
2018-06-12T14:52:59.584Z,5.17
2018-06-12T14:55:28.858Z,5.60
2018-06-12T14:57:58.130Z,5.50
2018-06-12T15:00:27.500Z,6.13
2018-06-12T15:02:56.778Z,5.80
2018-06-12T15:05:26.020Z,6.20
2018-06-12T15:07:55.316Z,5.47
2018-06-12T15:10:24.586Z,5.93
2018-06-12T15:12:53.941Z,6.27
2018-06-12T15:15:24.253Z,5.00
2018-06-12T15:17:53.544Z,5.60
2018-06-12T15:20:22.859Z,6.83
2018-06-12T15:22:52.377Z,6.10
2018-06-12T15:25:21.740Z,6.60
2018-06-12T15:27:51.008Z,6.50
2018-06-12T15:30:20.356Z,6.70
2018-06-12T15:32:49.801Z,8.10
2018-06-12T15:35:19.079Z,6.27
2018-06-12T15:37:48.472Z,6.60
2018-06-12T15:40:18.828Z,6.87
2018-06-12T15:42:48.194Z,6.90
2018-06-12T15:45:17.523Z,7.00
2018-06-12T15:47:46.812Z,6.83
2018-06-12T15:50:16.216Z,6.93
2018-06-12T15:52:45.488Z,6.73
2018-06-12T15:55:14.841Z,6.07
2018-06-12T15:57:44.216Z,7.03
2018-06-12T16:00:13.480Z,7.20
2018-06-12T16:02:42.756Z,7.40
2018-06-12T16:05:12.059Z,7.40
2018-06-12T16:07:41.518Z,7.90
2018-06-12T16:10:10.805Z,7.90
2018-06-12T16:12:40.209Z,8.40
2018-06-12T16:15:09.543Z,6.70
2018-06-12T16:17:38.815Z,8.83
2018-06-12T16:20:08.147Z,8.90
2018-06-12T16:22:37.219Z,9.17
2018-06-12T16:25:06.364Z,7.07
2018-06-12T16:27:35.687Z,8.30
2018-06-12T16:30:05.112Z,9.30
2018-06-12T16:32:34.394Z,10.00
2018-06-12T16:35:03.755Z,10.20
2018-06-12T16:37:33.064Z,9.23
2018-06-12T16:40:02.429Z,8.90
2018-06-12T16:42:31.683Z,9.67
2018-06-12T16:45:00.963Z,9.53
2018-06-12T16:47:30.255Z,9.23
2018-06-12T16:49:59.568Z,8.50
2018-06-12T16:52:29.215Z,9.80
2018-06-12T16:54:58.482Z,9.80
2018-06-12T16:57:27.772Z,10.80
2018-06-12T16:59:57.084Z,10.43
2018-06-12T17:02:26.349Z,9.03
2018-06-12T17:04:55.749Z,9.90
2018-06-12T17:07:25.074Z,10.10
2018-06-12T17:09:54.434Z,8.77
2018-06-12T17:12:23.733Z,9.83
2018-06-12T17:14:53.190Z,10.07
2018-06-12T17:17:22.517Z,10.77
2018-06-12T17:19:51.823Z,12.40
2018-06-12T17:22:21.144Z,13.93
2018-06-12T17:24:50.440Z,13.43
2018-06-12T17:27:19.701Z,15.30
2018-06-12T17:29:49.105Z,14.80
2018-06-12T17:32:18.390Z,18.93
2018-06-12T17:34:47.621Z,19.50
2018-06-12T17:37:16.849Z,17.60
2018-06-12T17:39:46.185Z,21.50
2018-06-12T17:42:15.551Z,20.93
2018-06-12T17:44:44.820Z,23.20
2018-06-12T17:47:14.107Z,22.60
2018-06-12T17:49:43.362Z,21.50
2018-06-12T17:52:12.736Z,22.70
2018-06-12T17:54:41.992Z,22.57
2018-06-12T17:57:11.279Z,22.43
2018-06-12T17:59:40.552Z,22.27
2018-06-12T18:02:09.832Z,24.30
2018-06-12T18:04:39.148Z,24.70
2018-06-12T18:07:08.432Z,21.60
2018-06-12T18:09:37.761Z,24.10
2018-06-12T18:12:07.065Z,21.30
2018-06-12T18:14:36.449Z,21.80
2018-06-12T18:17:05.813Z,23.00
2018-06-12T18:19:34.876Z,22.87
2018-06-12T18:22:04.033Z,23.43
2018-06-12T18:24:33.391Z,23.50
2018-06-12T18:27:02.729Z,22.93
2018-06-12T18:29:32.066Z,22.00
2018-06-12T18:32:01.370Z,20.97
2018-06-12T18:34:30.665Z,21.20
2018-06-12T18:37:00.109Z,22.27
2018-06-12T18:39:29.117Z,22.10
2018-06-12T18:41:58.362Z,20.70
2018-06-12T18:44:27.753Z,21.47
2018-06-12T18:46:57.218Z,22.77
2018-06-12T18:49:26.538Z,22.97
2018-06-12T18:51:58.034Z,22.33
2018-06-12T18:54:27.460Z,20.30
2018-06-12T18:56:56.916Z,21.30
2018-06-12T18:59:26.284Z,22.27
2018-06-12T19:01:55.672Z,21.80
2018-06-12T19:04:24.798Z,20.50
2018-06-12T19:06:54.316Z,22.40
2018-06-12T19:09:23.744Z,21.90
2018-06-12T19:11:53.092Z,23.80
2018-06-12T19:14:22.184Z,22.77
2018-06-12T19:16:51.406Z,23.90
2018-06-12T19:19:20.905Z,23.53
2018-06-12T19:21:50.320Z,26.70
2018-06-12T19:24:19.765Z,27.83
2018-06-12T19:26:49.164Z,25.70
2018-06-12T19:29:18.464Z,26.87
2018-06-12T19:31:47.788Z,28.43
2018-06-12T19:34:17.132Z,27.20
2018-06-12T19:36:46.570Z,26.87
2018-06-12T19:39:15.957Z,25.93
2018-06-12T19:41:51.561Z,26.87
2018-06-12T19:44:20.898Z,25.83
2018-06-12T19:46:50.320Z,27.80
2018-06-12T19:49:19.735Z,26.60
2018-06-12T19:51:49.057Z,24.77
2018-06-12T19:54:18.448Z,26.60
2018-06-12T19:56:47.855Z,26.60
2018-06-12T19:59:17.169Z,25.80
2018-06-12T20:01:46.536Z,27.40
2018-06-12T20:04:15.961Z,26.73
2018-06-12T20:06:45.293Z,26.97
2018-06-12T20:09:14.711Z,26.30
2018-06-12T20:11:44.099Z,27.13
2018-06-12T20:14:13.521Z,26.63
2018-06-12T20:16:42.860Z,27.20
2018-06-12T20:19:12.369Z,24.63
2018-06-12T20:21:41.650Z,26.43
2018-06-12T20:24:11.013Z,26.17
2018-06-12T20:26:40.321Z,29.47
2018-06-12T20:29:09.926Z,27.87
2018-06-12T20:31:38.943Z,26.70
2018-06-12T20:34:07.800Z,24.77
2018-06-12T20:36:37.109Z,25.00
2018-06-12T20:39:08.030Z,25.33
2018-06-12T20:41:37.314Z,25.60
2018-06-12T20:44:06.677Z,26.27
2018-06-12T20:46:35.965Z,24.93
2018-06-12T20:49:05.385Z,25.47
2018-06-12T20:51:34.786Z,24.77
2018-06-12T20:54:04.139Z,25.13
2018-06-12T20:56:33.446Z,25.30
2018-06-12T20:59:02.538Z,24.93
2018-06-12T21:01:31.866Z,23.80
2018-06-12T21:04:01.170Z,22.37
2018-06-12T21:06:30.256Z,19.80
2018-06-12T21:08:59.496Z,18.37
2018-06-12T21:11:29.863Z,18.30
2018-06-12T21:13:59.233Z,18.57
2018-06-12T21:16:28.519Z,19.77
2018-06-12T21:18:57.968Z,16.20
2018-06-12T21:21:27.429Z,18.40
2018-06-12T21:23:56.797Z,19.47
2018-06-12T21:26:26.096Z,16.30
2018-06-12T21:28:55.489Z,16.17
2018-06-12T21:31:24.936Z,16.43
2018-06-12T21:33:54.232Z,14.73
2018-06-12T21:36:23.536Z,16.47
2018-06-12T21:38:52.952Z,15.87
2018-06-12T21:41:22.271Z,15.23
2018-06-12T21:43:51.607Z,14.67
2018-06-12T21:46:20.972Z,13.10
2018-06-12T21:48:50.348Z,14.00
2018-06-12T21:51:19.786Z,13.97
2018-06-12T21:53:49.113Z,12.57
2018-06-12T21:56:18.440Z,13.00
2018-06-12T21:58:47.796Z,14.23
2018-06-12T22:01:17.145Z,13.03
2018-06-12T22:03:46.517Z,12.73
2018-06-12T22:06:15.806Z,12.73
2018-06-12T22:08:45.184Z,13.43
2018-06-12T22:11:14.623Z,12.60
2018-06-12T22:13:43.916Z,14.00
2018-06-12T22:16:21.880Z,12.87
2018-06-12T22:18:51.532Z,13.23
2018-06-12T22:21:21.152Z,12.67
2018-06-12T22:23:50.599Z,9.73
2018-06-12T22:26:19.603Z,9.93
2018-06-12T22:28:48.775Z,10.03
2018-06-12T22:31:17.855Z,9.60
2018-06-12T22:33:47.146Z,9.53
2018-06-12T22:36:16.440Z,10.10
2018-06-12T22:38:45.770Z,9.33
2018-06-12T22:41:14.779Z,9.67
2018-06-12T22:43:43.963Z,9.50
2018-06-12T22:46:13.347Z,9.00
2018-06-12T22:48:42.688Z,10.37
2018-06-12T22:51:12.053Z,9.30
2018-06-12T22:53:41.349Z,10.30
2018-06-12T22:56:10.615Z,10.07
2018-06-12T22:58:39.984Z,9.33
2018-06-12T23:01:09.372Z,10.37
2018-06-12T23:03:38.775Z,10.60
2018-06-12T23:06:08.037Z,9.30
2018-06-12T23:08:37.305Z,10.20
2018-06-12T23:11:06.607Z,10.40
2018-06-12T23:13:35.967Z,9.37
2018-06-12T23:16:05.383Z,10.93
2018-06-12T23:18:34.680Z,11.83
2018-06-12T23:22:08.520Z,10.67
2018-06-12T23:24:37.684Z,10.40
2018-06-12T23:27:07.045Z,11.00
2018-06-12T23:29:36.776Z,10.50
2018-06-12T23:32:06.289Z,10.00
2018-06-12T23:34:35.553Z,9.70
2018-06-12T23:37:04.883Z,10.40
2018-06-12T23:39:34.222Z,9.27
2018-06-12T23:42:03.505Z,8.70
2018-06-12T23:44:32.784Z,9.27
2018-06-12T23:47:03.469Z,9.33
2018-06-12T23:49:32.977Z,8.60
2018-06-12T23:52:02.536Z,8.33
2018-06-12T23:54:31.856Z,8.90
2018-06-12T23:57:01.649Z,8.63
2018-06-12T23:59:30.643Z,8.47
